sensor_id;sensor_type;location;lat;lon;timestamp;pressure;altitude;pressure_sealevel;temperature;humidity
2761;BME280;15420;48.636;9.798;2023-02-26T00:01:20;96031.34;;;2.17;98.39
2761;BME280;15420;48.636;9.798;2023-02-26T00:03:55;96027.13;;;2.17;98.33
2761;BME280;15420;48.636;9.798;2023-02-26T00:06:22;96028.81;;;2.17;98.10
2761;BME280;15420;48.636;9.798;2023-02-26T00:08:49;96033.88;;;2.17;98.28
2761;BME280;15420;48.636;9.798;2023-02-26T00:11:18;96037.22;;;2.16;98.10
2761;BME280;15420;48.636;9.798;2023-02-26T00:13:45;96044.78;;;2.14;97.96
2761;BME280;15420;48.636;9.798;2023-02-26T00:16:32;96047.28;;;2.13;97.48
2761;BME280;15420;48.636;9.798;2023-02-26T00:19:02;96043.00;;;2.12;97.46
2761;BME280;15420;48.636;9.798;2023-02-26T00:21:32;96042.88;;;2.09;97.41
2761;BME280;15420;48.636;9.798;2023-02-26T00:24:01;96047.09;;;2.08;97.56
2761;BME280;15420;48.636;9.798;2023-02-26T00:26:31;96049.63;;;2.08;97.56
2761;BME280;15420;48.636;9.798;2023-02-26T00:29:01;96052.16;;;2.08;97.31
2761;BME280;15420;48.636;9.798;2023-02-26T00:31:27;96048.06;;;2.12;97.67
2761;BME280;15420;48.636;9.798;2023-02-26T00:33:55;96048.72;;;2.06;97.35
2761;BME280;15420;48.636;9.798;2023-02-26T00:39:17;96052.00;;;2.04;96.45
2761;BME280;15420;48.636;9.798;2023-02-26T00:41:46;96053.63;;;2.02;96.15
2761;BME280;15420;48.636;9.798;2023-02-26T00:44:13;96050.28;;;2.03;96.56
2761;BME280;15420;48.636;9.798;2023-02-26T00:46:51;96051.75;;;1.98;96.04
2761;BME280;15420;48.636;9.798;2023-02-26T00:52:12;96054.91;;;1.92;95.47
2761;BME280;15420;48.636;9.798;2023-02-26T00:54:39;96050.63;;;1.91;95.47
2761;BME280;15420;48.636;9.798;2023-02-26T00:57:06;96058.06;;;1.86;95.25
2761;BME280;15420;48.636;9.798;2023-02-26T00:59:32;96060.47;;;1.83;94.94
2761;BME280;15420;48.636;9.798;2023-02-26T01:02:00;96051.19;;;1.84;95.21
2761;BME280;15420;48.636;9.798;2023-02-26T01:04:27;96049.25;;;1.78;94.57
2761;BME280;15420;48.636;9.798;2023-02-26T01:06:55;96053.41;;;1.76;94.79
2761;BME280;15420;48.636;9.798;2023-02-26T01:09:29;96052.47;;;1.74;94.27
2761;BME280;15420;48.636;9.798;2023-02-26T01:12:00;96055.59;;;1.69;93.90
2761;BME280;15420;48.636;9.798;2023-02-26T01:14:30;96058.06;;;1.67;93.86
2761;BME280;15420;48.636;9.798;2023-02-26T01:20:02;96057.88;;;1.62;93.21
2761;BME280;15420;48.636;9.798;2023-02-26T01:25:07;96063.44;;;1.54;93.29
2761;BME280;15420;48.636;9.798;2023-02-26T01:27:33;96059.88;;;1.50;93.23
2761;BME280;15420;48.636;9.798;2023-02-26T01:30:03;96066.69;;;1.51;92.98
2761;BME280;15420;48.636;9.798;2023-02-26T01:32:42;96057.34;;;1.50;93.16
2761;BME280;15420;48.636;9.798;2023-02-26T01:44:46;96057.22;;;1.47;93.07
2761;BME280;15420;48.636;9.798;2023-02-26T01:46:59;96061.50;;;1.48;93.86
2761;BME280;15420;48.636;9.798;2023-02-26T01:49:28;96064.03;;;1.48;94.08
2761;BME280;15420;48.636;9.798;2023-02-26T01:51:55;96066.50;;;1.47;93.66
2761;BME280;15420;48.636;9.798;2023-02-26T01:54:27;96064.97;;;1.50;94.29
2761;BME280;15420;48.636;9.798;2023-02-26T01:57:10;96058.88;;;1.47;94.00
2761;BME280;15420;48.636;9.798;2023-02-26T01:59:45;96065.56;;;1.45;93.80
2761;BME280;15420;48.636;9.798;2023-02-26T02:02:18;96064.63;;;1.43;93.21
2761;BME280;15420;48.636;9.798;2023-02-26T02:04:50;96071.44;;;1.44;93.54
2761;BME280;15420;48.636;9.798;2023-02-26T02:07:20;96071.31;;;1.41;93.12
2761;BME280;15420;48.636;9.798;2023-02-26T02:09:46;96073.13;;;1.43;93.93
2761;BME280;15420;48.636;9.798;2023-02-26T02:20:15;96066.22;;;1.41;93.31
2761;BME280;15420;48.636;9.798;2023-02-26T02:31:16;96086.53;;;1.41;93.75
2761;BME280;15420;48.636;9.798;2023-02-26T02:36:26;96089.72;;;1.37;93.78
2761;BME280;15420;48.636;9.798;2023-02-26T02:39:00;96090.59;;;1.37;93.26
2761;BME280;15420;48.636;9.798;2023-02-26T02:41:40;96103.16;;;1.34;92.28
2761;BME280;15420;48.636;9.798;2023-02-26T02:44:14;96097.13;;;1.32;92.24
2761;BME280;15420;48.636;9.798;2023-02-26T02:46:44;96097.88;;;1.29;92.15
2761;BME280;15420;48.636;9.798;2023-02-26T02:49:16;96096.28;;;1.31;92.45
2761;BME280;15420;48.636;9.798;2023-02-26T02:52:02;96097.81;;;1.28;91.92
2761;BME280;15420;48.636;9.798;2023-02-26T02:54:43;96106.28;;;1.28;91.83
2761;BME280;15420;48.636;9.798;2023-02-26T02:57:18;96100.00;;;1.20;91.82
2761;BME280;15420;48.636;9.798;2023-02-26T02:59:53;96094.84;;;1.19;91.25
2761;BME280;15420;48.636;9.798;2023-02-26T03:02:32;96097.25;;;1.16;91.52
2761;BME280;15420;48.636;9.798;2023-02-26T03:05:03;96102.97;;;1.12;90.99
2761;BME280;15420;48.636;9.798;2023-02-26T03:07:35;96106.31;;;1.11;91.46
2761;BME280;15420;48.636;9.798;2023-02-26T03:10:04;96108.72;;;1.08;92.02
2761;BME280;15420;48.636;9.798;2023-02-26T03:12:33;96107.13;;;1.10;91.87
2761;BME280;15420;48.636;9.798;2023-02-26T03:15:00;96105.13;;;1.03;92.37
2761;BME280;15420;48.636;9.798;2023-02-26T03:17:34;96109.13;;;0.97;91.63
2761;BME280;15420;48.636;9.798;2023-02-26T03:23:20;96110.56;;;0.92;90.84
2761;BME280;15420;48.636;9.798;2023-02-26T03:25:58;96119.56;;;0.86;90.00
2761;BME280;15420;48.636;9.798;2023-02-26T03:28:30;96121.94;;;0.83;91.40
2761;BME280;15420;48.636;9.798;2023-02-26T03:34:07;96118.03;;;0.72;90.70
2761;BME280;15420;48.636;9.798;2023-02-26T03:36:50;96128.75;;;0.66;90.37
2761;BME280;15420;48.636;9.798;2023-02-26T03:39:32;96127.66;;;0.61;89.54
2761;BME280;15420;48.636;9.798;2023-02-26T03:42:47;96127.53;;;0.58;89.99
2761;BME280;15420;48.636;9.798;2023-02-26T03:45:19;96133.31;;;0.55;89.34
2761;BME280;15420;48.636;9.798;2023-02-26T03:47:49;96130.56;;;0.51;89.59
2761;BME280;15420;48.636;9.798;2023-02-26T03:53:02;96139.38;;;0.41;89.57
2761;BME280;15420;48.636;9.798;2023-02-26T03:58:04;96145.88;;;0.36;89.49
2761;BME280;15420;48.636;9.798;2023-02-26T04:00:31;96152.63;;;0.36;88.51
2761;BME280;15420;48.636;9.798;2023-02-26T04:03:07;96148.97;;;0.30;88.50
2761;BME280;15420;48.636;9.798;2023-02-26T04:05:41;96144.63;;;0.28;88.49
2761;BME280;15420;48.636;9.798;2023-02-26T04:08:11;96153.75;;;0.24;89.09
2761;BME280;15420;48.636;9.798;2023-02-26T04:10:42;96150.34;;;0.24;88.87
2761;BME280;15420;48.636;9.798;2023-02-26T04:13:09;96153.59;;;0.21;88.75
2761;BME280;15420;48.636;9.798;2023-02-26T04:15:37;96159.38;;;0.19;88.59
2761;BME280;15420;48.636;9.798;2023-02-26T04:18:04;96155.03;;;0.16;88.02
2761;BME280;15420;48.636;9.798;2023-02-26T04:20:32;96161.59;;;0.13;88.23
2761;BME280;15420;48.636;9.798;2023-02-26T04:23:01;96159.78;;;0.10;89.13
2761;BME280;15420;48.636;9.798;2023-02-26T04:25:30;96160.41;;;0.06;88.34
2761;BME280;15420;48.636;9.798;2023-02-26T04:27:57;96163.66;;;0.04;88.88
2761;BME280;15420;48.636;9.798;2023-02-26T04:30:23;96170.31;;;0.02;88.88
2761;BME280;15420;48.636;9.798;2023-02-26T04:32:49;96167.66;;;-0.02;89.04
2761;BME280;15420;48.636;9.798;2023-02-26T04:35:17;96170.13;;;-0.03;89.07
2761;BME280;15420;48.636;9.798;2023-02-26T04:37:44;96165.69;;;-0.07;88.28
2761;BME280;15420;48.636;9.798;2023-02-26T04:40:10;96168.13;;;-0.09;88.76
2761;BME280;15420;48.636;9.798;2023-02-26T04:42:36;96173.91;;;-0.11;89.09
2761;BME280;15420;48.636;9.798;2023-02-26T04:45:05;96178.91;;;-0.13;88.75
2761;BME280;15420;48.636;9.798;2023-02-26T04:47:34;96181.28;;;-0.16;88.83
2761;BME280;15420;48.636;9.798;2023-02-26T04:50:00;96180.31;;;-0.18;88.30
2761;BME280;15420;48.636;9.798;2023-02-26T04:52:26;96185.31;;;-0.19;88.75
2761;BME280;15420;48.636;9.798;2023-02-26T04:54:52;96183.41;;;-0.23;89.35
2761;BME280;15420;48.636;9.798;2023-02-26T04:57:21;96185.84;;;-0.25;90.14
2761;BME280;15420;48.636;9.798;2023-02-26T04:59:49;96188.38;;;-0.25;90.45
2761;BME280;15420;48.636;9.798;2023-02-26T05:02:18;96190.75;;;-0.28;91.17
2761;BME280;15420;48.636;9.798;2023-02-26T05:04:46;96189.03;;;-0.29;90.98
2761;BME280;15420;48.636;9.798;2023-02-26T05:07:12;96189.72;;;-0.31;91.57
2761;BME280;15420;48.636;9.798;2023-02-26T05:09:43;96195.56;;;-0.32;91.90
2761;BME280;15420;48.636;9.798;2023-02-26T05:12:09;96191.22;;;-0.35;92.38
2761;BME280;15420;48.636;9.798;2023-02-26T05:14:40;96196.28;;;-0.35;92.52
2761;BME280;15420;48.636;9.798;2023-02-26T05:17:06;96195.19;;;-0.40;92.45
2761;BME280;15420;48.636;9.798;2023-02-26T05:19:37;96203.56;;;-0.41;92.34
2761;BME280;15420;48.636;9.798;2023-02-26T05:22:03;96205.94;;;-0.44;92.89
2761;BME280;15420;48.636;9.798;2023-02-26T05:24:29;96209.25;;;-0.45;93.03
2761;BME280;15420;48.636;9.798;2023-02-26T05:26:58;96217.53;;;-0.48;92.76
2761;BME280;15420;48.636;9.798;2023-02-26T05:29:26;96216.66;;;-0.48;92.90
2761;BME280;15420;48.636;9.798;2023-02-26T05:31:53;96213.19;;;-0.50;93.19
2761;BME280;15420;48.636;9.798;2023-02-26T05:34:19;96223.13;;;-0.53;93.27
2761;BME280;15420;48.636;9.798;2023-02-26T05:36:45;96227.31;;;-0.54;93.55
2761;BME280;15420;48.636;9.798;2023-02-26T05:39:11;96223.06;;;-0.55;93.35
2761;BME280;15420;48.636;9.798;2023-02-26T05:41:42;96223.22;;;-0.52;93.71
2761;BME280;15420;48.636;9.798;2023-02-26T05:44:08;96232.47;;;-0.52;93.24
2761;BME280;15420;48.636;9.798;2023-02-26T05:46:34;96229.31;;;-0.48;93.56
2761;BME280;15420;48.636;9.798;2023-02-26T05:49:01;96236.19;;;-0.46;93.83
2761;BME280;15420;48.636;9.798;2023-02-26T05:51:27;96229.41;;;-0.47;94.24
2761;BME280;15420;48.636;9.798;2023-02-26T05:53:54;96242.28;;;-0.42;93.50
2761;BME280;15420;48.636;9.798;2023-02-26T05:56:20;96244.13;;;-0.40;94.25
2761;BME280;15420;48.636;9.798;2023-02-26T05:58:50;96245.00;;;-0.39;93.69
2761;BME280;15420;48.636;9.798;2023-02-26T06:01:17;96249.09;;;-0.41;93.88
2761;BME280;15420;48.636;9.798;2023-02-26T06:03:45;96255.91;;;-0.40;94.24
2761;BME280;15420;48.636;9.798;2023-02-26T06:06:14;96255.09;;;-0.39;94.25
2761;BME280;15420;48.636;9.798;2023-02-26T06:08:43;96260.25;;;-0.38;94.22
2761;BME280;15420;48.636;9.798;2023-02-26T06:11:09;96267.91;;;-0.36;94.96
2761;BME280;15420;48.636;9.798;2023-02-26T06:13:35;96263.81;;;-0.34;94.92
2761;BME280;15420;48.636;9.798;2023-02-26T06:16:04;96266.50;;;-0.31;95.13
2761;BME280;15420;48.636;9.798;2023-02-26T06:18:32;96272.59;;;-0.27;94.81
2761;BME280;15420;48.636;9.798;2023-02-26T06:21:02;96266.75;;;-0.26;95.13
2761;BME280;15420;48.636;9.798;2023-02-26T06:23:28;96269.38;;;-0.25;96.03
2761;BME280;15420;48.636;9.798;2023-02-26T06:25:54;96272.06;;;-0.22;94.98
2761;BME280;15420;48.636;9.798;2023-02-26T06:28:23;96283.13;;;-0.20;95.78
2761;BME280;15420;48.636;9.798;2023-02-26T06:30:50;96275.53;;;-0.20;95.62
2761;BME280;15420;48.636;9.798;2023-02-26T06:33:17;96280.78;;;-0.17;95.13
2761;BME280;15420;48.636;9.798;2023-02-26T06:35:44;96284.25;;;-0.15;94.93
2761;BME280;15420;48.636;9.798;2023-02-26T06:38:10;96286.00;;;-0.14;94.91
2761;BME280;15420;48.636;9.798;2023-02-26T06:40:36;96295.34;;;-0.13;94.80
2761;BME280;15420;48.636;9.798;2023-02-26T06:43:02;96295.41;;;-0.11;95.23
2761;BME280;15420;48.636;9.798;2023-02-26T06:45:29;96294.63;;;-0.10;94.78
2761;BME280;15420;48.636;9.798;2023-02-26T06:47:57;96296.38;;;-0.09;95.31
2761;BME280;15420;48.636;9.798;2023-02-26T06:50:23;96302.38;;;-0.07;95.15
2761;BME280;15420;48.636;9.798;2023-02-26T06:52:50;96303.25;;;-0.07;94.87
2761;BME280;15420;48.636;9.798;2023-02-26T06:55:16;96302.38;;;-0.07;94.70
2761;BME280;15420;48.636;9.798;2023-02-26T06:57:42;96310.06;;;-0.06;94.47
2761;BME280;15420;48.636;9.798;2023-02-26T07:00:09;96301.75;;;-0.03;94.51
2761;BME280;15420;48.636;9.798;2023-02-26T07:02:35;96309.44;;;-0.02;93.53
2761;BME280;15420;48.636;9.798;2023-02-26T07:05:01;96316.25;;;-0.01;93.85
2761;BME280;15420;48.636;9.798;2023-02-26T07:07:28;96319.63;;;0.00;94.15
2761;BME280;15420;48.636;9.798;2023-02-26T07:09:54;96320.56;;;0.02;94.19
2761;BME280;15420;48.636;9.798;2023-02-26T07:12:20;96323.19;;;0.04;94.11
2761;BME280;15420;48.636;9.798;2023-02-26T07:14:46;96329.28;;;0.07;93.38
2761;BME280;15420;48.636;9.798;2023-02-26T07:17:13;96331.81;;;0.07;94.04
2761;BME280;15420;48.636;9.798;2023-02-26T07:19:49;96330.31;;;0.11;93.31
2761;BME280;15420;48.636;9.798;2023-02-26T07:22:17;96328.66;;;0.11;94.10
2761;BME280;15420;48.636;9.798;2023-02-26T07:24:44;96342.44;;;0.16;94.26
2761;BME280;15420;48.636;9.798;2023-02-26T07:27:14;96338.31;;;0.18;93.92
2761;BME280;15420;48.636;9.798;2023-02-26T07:29:40;96337.53;;;0.19;94.07
2761;BME280;15420;48.636;9.798;2023-02-26T07:32:08;96340.38;;;0.25;93.87
2761;BME280;15420;48.636;9.798;2023-02-26T07:34:35;96341.41;;;0.29;93.02
2761;BME280;15420;48.636;9.798;2023-02-26T07:37:03;96346.63;;;0.32;93.65
2761;BME280;15420;48.636;9.798;2023-02-26T07:39:29;96340.63;;;0.30;93.12
2761;BME280;15420;48.636;9.798;2023-02-26T07:41:55;96351.06;;;0.36;93.61
2761;BME280;15420;48.636;9.798;2023-02-26T07:44:24;96349.72;;;0.43;92.96
2761;BME280;15420;48.636;9.798;2023-02-26T07:46:50;96347.28;;;0.44;93.76
2761;BME280;15420;48.636;9.798;2023-02-26T07:49:16;96347.28;;;0.44;94.10
2761;BME280;15420;48.636;9.798;2023-02-26T07:51:42;96362.72;;;0.49;93.66
2761;BME280;15420;48.636;9.798;2023-02-26T07:54:11;96354.16;;;0.47;93.30
2761;BME280;15420;48.636;9.798;2023-02-26T07:56:39;96359.16;;;0.45;93.98
2761;BME280;15420;48.636;9.798;2023-02-26T07:59:06;96366.13;;;0.49;93.79
2761;BME280;15420;48.636;9.798;2023-02-26T08:01:34;96363.59;;;0.49;93.08
2761;BME280;15420;48.636;9.798;2023-02-26T08:04:01;96358.53;;;0.49;92.95
2761;BME280;15420;48.636;9.798;2023-02-26T08:06:28;96362.00;;;0.51;93.69
2761;BME280;15420;48.636;9.798;2023-02-26T08:08:54;96360.44;;;0.53;93.69
2761;BME280;15420;48.636;9.798;2023-02-26T08:11:20;96373.41;;;0.59;93.48
2761;BME280;15420;48.636;9.798;2023-02-26T08:13:46;96367.56;;;0.60;92.65
2761;BME280;15420;48.636;9.798;2023-02-26T08:16:13;96375.31;;;0.63;93.25
2761;BME280;15420;48.636;9.798;2023-02-26T08:18:42;96372.00;;;0.64;92.68
2761;BME280;15420;48.636;9.798;2023-02-26T08:21:08;96366.38;;;0.70;92.49
2761;BME280;15420;48.636;9.798;2023-02-26T08:23:35;96372.31;;;0.71;91.98
2761;BME280;15420;48.636;9.798;2023-02-26T08:26:09;96375.78;;;0.73;91.82
2761;BME280;15420;48.636;9.798;2023-02-26T08:28:36;96367.41;;;0.74;91.94
2761;BME280;15420;48.636;9.798;2023-02-26T08:31:07;96368.44;;;0.77;91.92
2761;BME280;15420;48.636;9.798;2023-02-26T08:33:33;96374.44;;;0.79;91.62
2761;BME280;15420;48.636;9.798;2023-02-26T08:36:00;96366.13;;;0.82;90.60
2761;BME280;15420;48.636;9.798;2023-02-26T08:38:30;96377.53;;;0.90;90.28
2761;BME280;15420;48.636;9.798;2023-02-26T08:40:56;96377.53;;;0.90;89.66
2761;BME280;15420;48.636;9.798;2023-02-26T08:43:23;96375.88;;;0.90;89.24
2761;BME280;15420;48.636;9.798;2023-02-26T08:45:52;96381.97;;;0.94;89.57
2761;BME280;15420;48.636;9.798;2023-02-26T08:48:19;96389.72;;;0.97;89.24
2761;BME280;15420;48.636;9.798;2023-02-26T08:50:48;96387.41;;;1.02;88.23
2761;BME280;15420;48.636;9.798;2023-02-26T08:53:17;96386.66;;;1.04;88.96
2761;BME280;15420;48.636;9.798;2023-02-26T08:55:47;96399.66;;;1.10;88.53
2761;BME280;15420;48.636;9.798;2023-02-26T08:58:14;96389.53;;;1.10;87.93
2761;BME280;15420;48.636;9.798;2023-02-26T09:00:40;96405.69;;;1.12;87.88
2761;BME280;15420;48.636;9.798;2023-02-26T09:03:06;96403.69;;;1.23;87.60
2761;BME280;15420;48.636;9.798;2023-02-26T09:05:32;96409.25;;;1.16;86.86
2761;BME280;15420;48.636;9.798;2023-02-26T09:07:58;96421.06;;;1.15;87.59
2761;BME280;15420;48.636;9.798;2023-02-26T09:10:25;96420.66;;;1.24;87.08
2761;BME280;15420;48.636;9.798;2023-02-26T09:12:51;96431.19;;;1.31;87.91
2761;BME280;15420;48.636;9.798;2023-02-26T09:15:17;96433.31;;;1.40;86.83
2761;BME280;15420;48.636;9.798;2023-02-26T09:17:46;96435.84;;;1.40;86.02
2761;BME280;15420;48.636;9.798;2023-02-26T09:20:13;96439.75;;;1.34;85.92
2761;BME280;15420;48.636;9.798;2023-02-26T09:22:42;96446.25;;;1.28;85.05
2761;BME280;15420;48.636;9.798;2023-02-26T09:25:09;96433.56;;;1.28;85.10
2761;BME280;15420;48.636;9.798;2023-02-26T09:27:35;96443.72;;;1.28;85.04
2761;BME280;15420;48.636;9.798;2023-02-26T09:30:03;96433.72;;;1.31;84.77
2761;BME280;15420;48.636;9.798;2023-02-26T09:32:29;96433.00;;;1.34;84.31
2761;BME280;15420;48.636;9.798;2023-02-26T09:34:56;96435.53;;;1.34;84.71
2761;BME280;15420;48.636;9.798;2023-02-26T09:37:24;96437.50;;;1.40;84.56
2761;BME280;15420;48.636;9.798;2023-02-26T09:39:50;96440.06;;;1.40;83.97
2761;BME280;15420;48.636;9.798;2023-02-26T09:44:52;96445.59;;;1.49;83.46
2761;BME280;15420;48.636;9.798;2023-02-26T09:47:20;96447.34;;;1.50;83.63
2761;BME280;15420;48.636;9.798;2023-02-26T09:50:06;96450.09;;;1.54;82.75
2761;BME280;15420;48.636;9.798;2023-02-26T10:06:48;96465.53;;;1.75;83.03
2761;BME280;15420;48.636;9.798;2023-02-26T10:12:19;96470.00;;;1.63;82.46
2761;BME280;15420;48.636;9.798;2023-02-26T10:20:20;96462.38;;;1.63;83.43
2761;BME280;15420;48.636;9.798;2023-02-26T10:23:11;96452.44;;;1.68;84.11
2761;BME280;15420;48.636;9.798;2023-02-26T10:25:52;96454.25;;;1.70;84.76
2761;BME280;15420;48.636;9.798;2023-02-26T10:31:05;96467.13;;;1.91;84.63
2761;BME280;15420;48.636;9.798;2023-02-26T10:33:39;96462.72;;;1.87;85.25
2761;BME280;15420;48.636;9.798;2023-02-26T10:39:34;96452.75;;;2.09;84.70
2761;BME280;15420;48.636;9.798;2023-02-26T10:42:08;96458.19;;;2.17;84.75
2761;BME280;15420;48.636;9.798;2023-02-26T10:44:49;96468.28;;;2.15;84.60
2761;BME280;15420;48.636;9.798;2023-02-26T10:49:54;96471.03;;;2.20;84.53
2761;BME280;15420;48.636;9.798;2023-02-26T10:52:26;96466.13;;;2.23;84.51
2761;BME280;15420;48.636;9.798;2023-02-26T10:55:32;96469.75;;;2.28;83.58
2761;BME280;15420;48.636;9.798;2023-02-26T10:58:03;96479.53;;;2.38;83.97
2761;BME280;15420;48.636;9.798;2023-02-26T11:00:31;96467.50;;;2.34;83.73
2761;BME280;15420;48.636;9.798;2023-02-26T11:03:04;96463.34;;;2.36;83.79
2761;BME280;15420;48.636;9.798;2023-02-26T11:05:33;96466.19;;;2.42;83.80
2761;BME280;15420;48.636;9.798;2023-02-26T11:08:03;96456.94;;;2.44;83.33
2761;BME280;15420;48.636;9.798;2023-02-26T11:10:50;96467.25;;;2.47;82.80
2761;BME280;15420;48.636;9.798;2023-02-26T11:13:21;96463.25;;;2.52;83.12
2761;BME280;15420;48.636;9.798;2023-02-26T11:15:50;96469.00;;;2.48;83.04
2761;BME280;15420;48.636;9.798;2023-02-26T11:18:29;96476.78;;;2.51;83.10
2761;BME280;15420;48.636;9.798;2023-02-26T11:20:57;96473.56;;;2.55;83.29
2761;BME280;15420;48.636;9.798;2023-02-26T11:23:28;96471.09;;;2.57;83.17
2761;BME280;15420;48.636;9.798;2023-02-26T11:26:13;96472.13;;;2.60;81.93
2761;BME280;15420;48.636;9.798;2023-02-26T11:28:45;96481.41;;;2.60;81.73
2761;BME280;15420;48.636;9.798;2023-02-26T11:31:16;96480.47;;;2.58;82.76
2761;BME280;15420;48.636;9.798;2023-02-26T11:33:53;96472.91;;;2.59;82.10
2761;BME280;15420;48.636;9.798;2023-02-26T11:36:25;96476.69;;;2.50;82.01
2761;BME280;15420;48.636;9.798;2023-02-26T11:39:18;96474.81;;;2.46;81.39
2761;BME280;15420;48.636;9.798;2023-02-26T11:41:47;96491.81;;;2.47;82.72
2761;BME280;15420;48.636;9.798;2023-02-26T11:47:01;96504.66;;;2.50;83.24
2761;BME280;15420;48.636;9.798;2023-02-26T11:49:29;96498.50;;;2.45;82.68
2761;BME280;15420;48.636;9.798;2023-02-26T11:54:40;96494.13;;;2.60;83.75
2761;BME280;15420;48.636;9.798;2023-02-26T11:57:25;96489.25;;;2.65;82.60
2761;BME280;15420;48.636;9.798;2023-02-26T11:59:54;96497.41;;;2.57;83.35
2761;BME280;15420;48.636;9.798;2023-02-26T12:02:26;96497.25;;;2.54;82.94
2761;BME280;15420;48.636;9.798;2023-02-26T12:05:00;96504.53;;;2.47;82.39
2761;BME280;15420;48.636;9.798;2023-02-26T12:07:30;96498.72;;;2.49;82.36
2761;BME280;15420;48.636;9.798;2023-02-26T12:09:58;96495.22;;;2.47;82.48
2761;BME280;15420;48.636;9.798;2023-02-26T12:15:41;96499.50;;;2.48;82.34
2761;BME280;15420;48.636;9.798;2023-02-26T12:18:20;96495.38;;;2.50;82.05
2761;BME280;15420;48.636;9.798;2023-02-26T12:26:40;96483.88;;;2.58;81.36
2761;BME280;15420;48.636;9.798;2023-02-26T12:32:14;96481.03;;;2.70;80.66
2761;BME280;15420;48.636;9.798;2023-02-26T12:46:05;96501.16;;;2.83;82.29
2761;BME280;15420;48.636;9.798;2023-02-26T13:15:55;96510.28;;;2.98;84.50
2761;BME280;15420;48.636;9.798;2023-02-26T13:21:11;96508.06;;;3.05;85.93
2761;BME280;15420;48.636;9.798;2023-02-26T13:23:51;96513.31;;;3.08;85.74
2761;BME280;15420;48.636;9.798;2023-02-26T13:26:19;96498.97;;;3.10;85.55
2761;BME280;15420;48.636;9.798;2023-02-26T13:37:00;96517.31;;;3.22;85.10
2761;BME280;15420;48.636;9.798;2023-02-26T13:45:42;96513.50;;;3.32;84.42
2761;BME280;15420;48.636;9.798;2023-02-26T13:56:48;96509.00;;;3.46;79.90
2761;BME280;15420;48.636;9.798;2023-02-26T14:01:48;96510.59;;;3.63;79.53
2761;BME280;15420;48.636;9.798;2023-02-26T14:06:49;96544.38;;;3.78;79.66
2761;BME280;15420;48.636;9.798;2023-02-26T14:12:01;96528.66;;;3.88;82.09
2761;BME280;15420;48.636;9.798;2023-02-26T14:27:46;96523.91;;;3.96;81.57
2761;BME280;15420;48.636;9.798;2023-02-26T14:30:27;96509.06;;;4.07;80.83
2761;BME280;15420;48.636;9.798;2023-02-26T14:35:47;96520.16;;;4.30;79.22
2761;BME280;15420;48.636;9.798;2023-02-26T14:38:30;96536.50;;;4.35;78.68
2761;BME280;15420;48.636;9.798;2023-02-26T14:41:28;96543.59;;;4.42;78.89
2761;BME280;15420;48.636;9.798;2023-02-26T14:43:58;96558.78;;;4.39;78.20
2761;BME280;15420;48.636;9.798;2023-02-26T14:46:25;96562.94;;;4.37;77.84
2761;BME280;15420;48.636;9.798;2023-02-26T14:48:52;96575.06;;;4.42;78.13
2761;BME280;15420;48.636;9.798;2023-02-26T14:51:39;96591.81;;;4.36;77.40
2761;BME280;15420;48.636;9.798;2023-02-26T14:54:34;96576.38;;;4.33;78.85
2761;BME280;15420;48.636;9.798;2023-02-26T15:05:39;96573.50;;;4.04;81.29
2761;BME280;15420;48.636;9.798;2023-02-26T15:16:16;96574.66;;;3.91;81.54
2761;BME280;15420;48.636;9.798;2023-02-26T15:24:15;96596.94;;;3.96;80.25
2761;BME280;15420;48.636;9.798;2023-02-26T15:27:08;96597.41;;;3.87;80.08
2761;BME280;15420;48.636;9.798;2023-02-26T15:29:38;96598.13;;;3.84;81.48
2761;BME280;15420;48.636;9.798;2023-02-26T15:37:26;96591.72;;;3.73;81.46
2761;BME280;15420;48.636;9.798;2023-02-26T15:39:54;96599.09;;;3.67;80.90
2761;BME280;15420;48.636;9.798;2023-02-26T15:42:26;96601.75;;;3.70;79.94
2761;BME280;15420;48.636;9.798;2023-02-26T15:44:55;96605.91;;;3.68;79.84
2761;BME280;15420;48.636;9.798;2023-02-26T15:47:28;96606.44;;;3.61;78.91
2761;BME280;15420;48.636;9.798;2023-02-26T15:49:55;96606.44;;;3.61;78.63
2761;BME280;15420;48.636;9.798;2023-02-26T15:52:26;96607.25;;;3.60;77.83
2761;BME280;15420;48.636;9.798;2023-02-26T15:54:59;96608.25;;;3.64;78.22
2761;BME280;15420;48.636;9.798;2023-02-26T15:57:28;96615.69;;;3.59;78.41
2761;BME280;15420;48.636;9.798;2023-02-26T16:00:05;96617.97;;;3.53;77.44
2761;BME280;15420;48.636;9.798;2023-02-26T16:02:38;96618.03;;;3.54;78.37
2761;BME280;15420;48.636;9.798;2023-02-26T16:05:06;96619.03;;;3.58;78.20
2761;BME280;15420;48.636;9.798;2023-02-26T16:07:32;96628.38;;;3.57;77.42
2761;BME280;15420;48.636;9.798;2023-02-26T16:10:06;96640.59;;;3.47;77.53
2761;BME280;15420;48.636;9.798;2023-02-26T16:12:42;96639.47;;;3.40;77.86
2761;BME280;15420;48.636;9.798;2023-02-26T16:15:19;96641.47;;;3.47;78.27
2761;BME280;15420;48.636;9.798;2023-02-26T16:17:49;96641.94;;;3.39;77.36
2761;BME280;15420;48.636;9.798;2023-02-26T16:20:20;96638.72;;;3.43;77.34
2761;BME280;15420;48.636;9.798;2023-02-26T16:23:01;96657.72;;;3.32;78.04
2761;BME280;15420;48.636;9.798;2023-02-26T16:25:30;96649.81;;;3.25;78.10
2761;BME280;15420;48.636;9.798;2023-02-26T16:28:05;96650.47;;;3.21;77.68
2761;BME280;15420;48.636;9.798;2023-02-26T16:30:34;96658.81;;;3.19;77.51
2761;BME280;15420;48.636;9.798;2023-02-26T16:33:06;96654.47;;;3.16;77.57
2761;BME280;15420;48.636;9.798;2023-02-26T16:35:40;96667.13;;;3.15;77.64
2761;BME280;15420;48.636;9.798;2023-02-26T16:38:29;96670.47;;;3.14;78.34
2761;BME280;15420;48.636;9.798;2023-02-26T16:41:04;96672.03;;;3.10;78.78
2761;BME280;15420;48.636;9.798;2023-02-26T16:43:52;96672.44;;;3.19;78.57
2761;BME280;15420;48.636;9.798;2023-02-26T16:51:38;96689.19;;;2.97;78.67
2761;BME280;15420;48.636;9.798;2023-02-26T16:54:18;96679.66;;;2.92;78.23
2761;BME280;15420;48.636;9.798;2023-02-26T16:56:51;96698.03;;;2.87;78.47
2761;BME280;15420;48.636;9.798;2023-02-26T16:59:25;96705.44;;;2.82;77.21
2761;BME280;15420;48.636;9.798;2023-02-26T17:02:08;96703.63;;;2.80;77.43
2761;BME280;15420;48.636;9.798;2023-02-26T17:04:38;96705.28;;;2.79;79.07
2761;BME280;15420;48.636;9.798;2023-02-26T17:07:26;96709.44;;;2.77;77.67
2761;BME280;15420;48.636;9.798;2023-02-26T17:09:57;96719.38;;;2.73;76.80
2761;BME280;15420;48.636;9.798;2023-02-26T17:13:11;96716.13;;;2.75;77.26
2761;BME280;15420;48.636;9.798;2023-02-26T17:15:39;96716.19;;;2.77;78.44
2761;BME280;15420;48.636;9.798;2023-02-26T17:18:06;96709.13;;;2.71;77.14
2761;BME280;15420;48.636;9.798;2023-02-26T17:20:33;96728.56;;;2.87;77.66
2761;BME280;15420;48.636;9.798;2023-02-26T17:23:04;96722.94;;;2.76;76.90